Time;durP1;ratioP1;P1;durP2;ratioP2;P2;SDS_P1;SDS_P2;PMS_P1;PMS_P2;Temp;Humidity;BMP_temperature;BMP_pressure;BME280_temperature;BME280_humidity;BME280_pressure;Samples;Min_cycle;Max_cycle;Signal;HPM_P1;HPM_P2
2024/01/14 00:02:00;;;;;;;10.60;7.60;;;;;;;0.64;95.83;98598.85;103123;1256;111253;-74
2024/01/14 00:04:27;;;;;;;9.30;8.00;;;;;;;0.69;95.96;98594.63;102928;1256;137920;-74
2024/01/14 00:06:54;;;;;;;10.90;8.20;;;;;;;0.72;96.03;98586.02;103089;1257;97712;-75
2024/01/14 00:09:21;;;;;;;10.10;8.40;;;;;;;0.73;96.00;98586.88;103036;1256;106379;-75
2024/01/14 00:11:49;;;;;;;13.00;9.80;;;;;;;0.72;95.71;98575.93;103983;1256;137788;-76
2024/01/14 00:14:16;;;;;;;10.80;8.60;;;;;;;0.69;95.73;98572.73;103115;1258;111871;-76
2024/01/14 00:16:43;;;;;;;10.80;7.90;;;;;;;0.70;95.76;98574.60;103221;1256;138291;-76
2024/01/14 00:19:10;;;;;;;10.30;7.50;;;;;;;0.70;95.90;98573.40;103141;1259;97971;-75
2024/01/14 00:21:37;;;;;;;9.30;7.00;;;;;;;0.71;96.01;98572.17;102944;1254;139310;-76
2024/01/14 00:24:04;;;;;;;10.00;7.00;;;;;;;0.73;96.05;98566.69;102335;1256;1002757;-75
2024/01/14 00:26:32;;;;;;;9.30;7.00;;;;;;;0.75;96.05;98565.96;103127;1256;110668;-76
2024/01/14 00:29:00;;;;;;;10.00;7.70;;;;;;;0.79;96.11;98562.98;102963;1259;137668;-72
2024/01/14 00:31:27;;;;;;;9.50;7.80;;;;;;;0.84;96.15;98559.79;103111;1256;98037;-72
2024/01/14 00:33:54;;;;;;;11.00;7.90;;;;;;;0.85;95.98;98553.26;102958;1257;137885;-72
2024/01/14 00:36:21;;;;;;;10.80;8.90;;;;;;;0.84;95.89;98551.58;103085;1257;97764;-73
2024/01/14 00:38:48;;;;;;;10.60;8.20;;;;;;;0.81;96.01;98550.28;103062;1258;111582;-71
2024/01/14 00:41:15;;;;;;;9.60;7.10;;;;;;;0.81;96.19;98542.74;103043;1259;138838;-74
2024/01/14 00:43:42;;;;;;;8.40;7.20;;;;;;;0.81;96.20;98547.02;103127;1257;97818;-74
2024/01/14 00:46:09;;;;;;;10.00;6.80;;;;;;;0.80;96.17;98536.77;103003;1258;139288;-74
2024/01/14 00:48:36;;;;;;;9.80;7.30;;;;;;;0.80;96.22;98536.43;103547;1256;97791;-73
2024/01/14 00:51:03;;;;;;;8.90;6.90;;;;;;;0.83;96.38;98532.10;103026;1257;110905;-73
2024/01/14 00:53:30;;;;;;;10.20;7.70;;;;;;;0.85;96.30;98526.58;103038;1255;137625;-75
2024/01/14 00:55:57;;;;;;;10.40;7.60;;;;;;;0.90;96.45;98523.57;103154;1258;97897;-75
2024/01/14 00:58:24;;;;;;;10.20;8.00;;;;;;;0.94;96.22;98520.93;102840;1257;137893;-74
2024/01/14 01:00:51;;;;;;;10.80;8.80;;;;;;;0.92;96.10;98513.45;103115;1255;97798;-76
2024/01/14 01:03:18;;;;;;;12.60;8.90;;;;;;;0.88;96.17;98506.13;102356;1258;1003388;-73
2024/01/14 01:05:45;;;;;;;12.00;8.60;;;;;;;0.87;96.19;98504.80;102940;1257;138749;-74
2024/01/14 01:08:13;;;;;;;11.20;7.70;;;;;;;0.85;96.31;98499.89;103035;1257;98941;-74
2024/01/14 01:10:39;;;;;;;10.00;7.70;;;;;;;0.83;96.20;98496.52;102954;1259;138019;-75
2024/01/14 01:13:07;;;;;;;9.60;7.70;;;;;;;0.81;96.43;98493.83;103077;1256;97796;-74
2024/01/14 01:15:33;;;;;;;9.30;7.30;;;;;;;0.79;96.40;98489.58;102978;1255;138917;-74
2024/01/14 01:18:01;;;;;;;10.00;7.50;;;;;;;0.79;96.44;98482.23;102950;1260;106913;-74
2024/01/14 01:20:28;;;;;;;11.00;7.30;;;;;;;0.83;96.63;98479.06;103110;1258;98304;-74
2024/01/14 01:22:55;;;;;;;9.60;8.00;;;;;;;0.84;96.48;98476.46;102970;1256;139625;-74
2024/01/14 01:25:21;;;;;;;10.20;8.50;;;;;;;0.87;96.61;98465.11;103039;1256;97757;-75
2024/01/14 01:27:48;;;;;;;11.80;9.10;;;;;;;0.88;96.43;98469.02;102920;1256;138246;-74
2024/01/14 01:30:15;;;;;;;10.30;8.10;;;;;;;0.86;96.47;98464.61;102289;1256;1002792;-75
2024/01/14 01:32:42;;;;;;;10.70;7.90;;;;;;;0.87;96.48;98468.18;103144;1255;97904;-75
2024/01/14 01:35:10;;;;;;;9.20;7.60;;;;;;;0.88;96.45;98458.75;102991;1256;138676;-74
2024/01/14 01:37:37;;;;;;;10.30;7.90;;;;;;;0.91;96.59;98459.73;103140;1256;97835;-75
2024/01/14 01:40:09;;;;;;;10.10;7.90;;;;;;;0.92;96.34;98454.91;102996;1258;139328;-74
2024/01/14 01:42:35;;;;;;;9.80;7.40;;;;;;;1.00;96.43;98456.80;103391;1256;108505;-74
2024/01/14 01:45:03;;;;;;;10.60;8.30;;;;;;;1.05;96.31;98452.21;103093;1256;97808;-75
2024/01/14 01:47:31;;;;;;;10.90;8.50;;;;;;;1.10;96.36;98447.82;102964;1255;137594;-75
2024/01/14 01:50:00;;;;;;;12.30;9.30;;;;;;;1.13;95.94;98444.52;102324;1257;1003431;-74
2024/01/14 01:52:28;;;;;;;12.20;9.10;;;;;;;1.15;95.89;98437.61;102962;1256;139396;-74
2024/01/14 01:54:57;;;;;;;10.90;8.50;;;;;;;1.14;95.75;98432.85;102320;1256;1003545;-74
2024/01/14 01:57:26;;;;;;;10.70;8.40;;;;;;;1.13;95.56;98428.58;103078;1255;97819;-73
2024/01/14 01:59:53;;;;;;;10.00;7.90;;;;;;;1.15;95.61;98422.39;102914;1256;137949;-74
2024/01/14 02:02:20;;;;;;;11.60;8.10;;;;;;;1.17;95.77;98417.88;103065;1259;96535;-74
2024/01/14 02:04:48;;;;;;;9.10;7.10;;;;;;;1.19;95.60;98415.25;102980;1257;138304;-74
2024/01/14 02:07:15;;;;;;;9.00;7.80;;;;;;;1.23;95.60;98412.95;103042;1256;107257;-74
2024/01/14 02:09:42;;;;;;;11.00;7.90;;;;;;;1.22;95.40;98407.31;102988;1256;137761;-74
2024/01/14 02:12:09;;;;;;;10.30;8.50;;;;;;;1.27;95.59;98406.38;103066;1255;107105;-73
2024/01/14 02:14:36;;;;;;;9.90;8.20;;;;;;;1.26;95.41;98405.87;103100;1258;97816;-74
2024/01/14 02:17:03;;;;;;;10.60;8.20;;;;;;;1.24;95.39;98404.54;102945;1256;137168;-74
2024/01/14 02:19:29;;;;;;;9.40;7.60;;;;;;;1.24;95.32;98403.34;103107;1256;107478;-74
2024/01/14 02:22:04;;;;;;;8.80;7.30;;;;;;;1.23;95.36;98400.27;102879;1258;139252;-73
2024/01/14 02:24:32;;;;;;;7.60;6.60;;;;;;;1.24;95.34;98394.61;103088;1256;107518;-73
2024/01/14 02:26:59;;;;;;;7.70;6.30;;;;;;;1.24;95.33;98400.77;103089;1256;97677;-74
2024/01/14 02:29:28;;;;;;;8.60;7.20;;;;;;;1.26;95.28;98396.79;103056;1260;138754;-74
2024/01/14 02:31:55;;;;;;;8.20;7.30;;;;;;;1.25;95.24;98397.31;102891;1260;107704;-73
2024/01/14 02:34:23;;;;;;;9.00;7.40;;;;;;;1.24;95.14;98387.92;103023;1256;137288;-73
2024/01/14 02:36:50;;;;;;;10.10;8.40;;;;;;;1.24;95.07;98387.25;103526;1256;108127;-74
2024/01/14 02:39:17;;;;;;;9.70;8.10;;;;;;;1.23;95.12;98380.41;103074;1256;97795;-73
2024/01/14 02:41:44;;;;;;;8.70;7.10;;;;;;;1.23;95.08;98380.93;102253;1259;1002837;-73
2024/01/14 02:44:11;;;;;;;7.40;6.30;;;;;;;1.23;95.03;98376.65;103072;1256;107025;-74
2024/01/14 02:46:38;;;;;;;8.50;6.70;;;;;;;1.24;94.87;98373.73;103193;1256;137931;-74
2024/01/14 02:49:05;;;;;;;7.90;7.00;;;;;;;1.25;94.98;98369.75;103322;1255;108192;-75
2024/01/14 02:51:33;;;;;;;7.70;6.40;;;;;;;1.29;94.82;98365.73;103139;1256;97896;-74
2024/01/14 02:54:01;;;;;;;9.90;7.50;;;;;;;1.32;94.67;98356.58;103784;1255;111244;-74
2024/01/14 02:56:28;;;;;;;7.90;7.10;;;;;;;1.37;94.67;98356.45;103040;1258;109446;-74
2024/01/14 02:58:55;;;;;;;9.80;7.40;;;;;;;1.38;94.48;98348.21;103024;1256;138472;-74
2024/01/14 03:01:51;;;;;;;9.40;7.70;;;;;;;1.35;94.09;98345.89;103719;1250;107497;31
2024/01/14 03:04:19;;;;;;;8.90;7.10;;;;;;;1.33;94.07;98343.02;102770;1257;137312;-75
2024/01/14 03:06:46;;;;;;;10.00;6.70;;;;;;;1.33;94.06;98348.15;103012;1257;111766;-74
2024/01/14 03:09:13;;;;;;;8.60;6.60;;;;;;;1.32;94.04;98347.67;102953;1257;106270;-75
2024/01/14 03:11:39;;;;;;;10.10;6.70;;;;;;;1.32;93.93;98345.29;102875;1257;138769;-75
2024/01/14 03:14:06;;;;;;;9.20;6.40;;;;;;;1.31;93.91;98344.63;102900;1257;107174;-74
2024/01/14 03:16:33;;;;;;;7.20;6.10;;;;;;;1.36;94.04;98343.98;102960;1257;137851;-74
2024/01/14 03:19:00;;;;;;;8.10;6.30;;;;;;;1.37;93.87;98339.66;103242;1257;113051;-75
2024/01/14 03:21:27;;;;;;;9.30;7.20;;;;;;;1.40;93.73;98339.58;102990;1261;107713;-75
2024/01/14 03:23:54;;;;;;;10.00;7.30;;;;;;;1.41;93.64;98341.44;102967;1260;137175;-75
2024/01/14 03:26:21;;;;;;;11.00;7.60;;;;;;;1.39;93.45;98332.25;103051;1257;106383;-74
2024/01/14 03:28:47;;;;;;;9.10;6.70;;;;;;;1.36;93.41;98329.08;102874;1257;137510;-74
2024/01/14 03:31:16;;;;;;;8.20;6.20;;;;;;;1.33;93.03;98326.07;103025;1257;111165;-75
2024/01/14 03:33:44;;;;;;;7.80;5.80;;;;;;;1.32;93.34;98329.02;102895;1260;138208;-74
2024/01/14 03:36:14;;;;;;;6.80;5.60;;;;;;;1.33;93.37;98327.62;102961;1260;97830;-74
2024/01/14 03:38:41;;;;;;;7.30;6.00;;;;;;;1.37;93.41;98324.60;103179;1260;106875;-76
2024/01/14 03:41:08;;;;;;;7.10;6.10;;;;;;;1.43;93.60;98324.42;102845;1258;138829;-74
2024/01/14 03:43:35;;;;;;;7.60;6.70;;;;;;;1.48;93.52;98326.03;102994;1258;110834;-74
2024/01/14 03:46:03;;;;;;;7.00;6.10;;;;;;;1.49;93.42;98327.38;102998;1260;137548;-74
2024/01/14 03:48:29;;;;;;;11.00;7.00;;;;;;;1.46;93.22;98324.53;103113;1257;97846;-75
2024/01/14 03:50:56;;;;;;;7.70;6.40;;;;;;;1.45;93.47;98323.89;103056;1257;107421;-74
2024/01/14 03:53:24;;;;;;;8.00;6.10;;;;;;;1.44;93.43;98321.00;102911;1260;139552;-75
2024/01/14 03:55:51;;;;;;;7.00;6.10;;;;;;;1.40;93.37;98323.84;103013;1258;110852;-74
2024/01/14 03:58:18;;;;;;;7.40;5.90;;;;;;;1.40;93.45;98322.29;102867;1257;138310;-74
2024/01/14 04:00:45;;;;;;;7.70;6.00;;;;;;;1.42;93.58;98315.73;103061;1257;97855;-75
2024/01/14 04:03:11;;;;;;;5.90;5.30;;;;;;;1.45;93.49;98316.18;103406;1257;107969;-75
2024/01/14 04:05:39;;;;;;;7.30;6.40;;;;;;;1.47;93.43;98313.71;102924;1257;137620;-74
2024/01/14 04:08:06;;;;;;;7.90;6.30;;;;;;;1.49;93.35;98312.80;102969;1257;110487;-75
2024/01/14 04:10:33;;;;;;;7.20;6.30;;;;;;;1.52;93.20;98306.41;102938;1259;137281;-74
2024/01/14 04:13:00;;;;;;;9.40;6.40;;;;;;;1.50;93.02;98306.27;103091;1256;97819;-74
2024/01/14 04:15:26;;;;;;;8.40;6.00;;;;;;;1.48;92.82;98304.45;102999;1259;106640;-74
2024/01/14 04:17:53;;;;;;;8.50;5.50;;;;;;;1.46;92.90;98305.89;103152;1260;137952;-74
2024/01/14 04:20:20;;;;;;;8.50;5.30;;;;;;;1.45;92.96;98301.62;102972;1258;112189;-74
2024/01/14 04:22:48;;;;;;;8.50;5.60;;;;;;;1.48;92.84;98298.46;102866;1257;138001;-75
2024/01/14 04:25:15;;;;;;;8.60;4.90;;;;;;;1.50;92.93;98297.71;103042;1257;97698;-74
2024/01/14 04:27:41;;;;;;;7.00;5.50;;;;;;;1.53;92.76;98299.85;102914;1258;138135;-74
2024/01/14 04:30:11;;;;;;;8.50;5.90;;;;;;;1.57;92.93;98292.38;103057;1257;97705;-76
2024/01/14 04:32:38;;;;;;;8.50;5.90;;;;;;;1.60;92.82;98290.59;103010;1260;112264;-75
2024/01/14 04:35:06;;;;;;;7.00;5.90;;;;;;;1.60;92.59;98289.55;102853;1256;139341;-75
2024/01/14 04:37:33;;;;;;;6.80;6.10;;;;;;;1.60;92.59;98292.30;103053;1260;97796;-74
2024/01/14 04:40:00;;;;;;;8.00;5.30;;;;;;;1.55;92.46;98290.73;102931;1257;137400;-74
2024/01/14 04:42:26;;;;;;;6.60;5.20;;;;;;;1.52;92.39;98288.07;102969;1257;97792;-74
2024/01/14 04:44:54;;;;;;;5.90;4.80;;;;;;;1.49;92.37;98286.95;103044;1259;110824;-74
2024/01/14 04:47:21;;;;;;;7.60;5.50;;;;;;;1.47;92.42;98283.22;102107;1258;1002924;-75
2024/01/14 04:49:48;;;;;;;5.80;5.10;;;;;;;1.50;92.38;98279.22;103056;1257;98429;-75
2024/01/14 04:52:15;;;;;;;8.60;5.60;;;;;;;1.52;92.29;98282.25;102918;1256;137677;-75
2024/01/14 04:54:42;;;;;;;6.10;5.40;;;;;;;1.54;92.40;98283.39;103069;1257;97877;-75
2024/01/14 04:57:08;;;;;;;8.30;6.30;;;;;;;1.54;92.31;98276.02;103010;1260;111144;-76
2024/01/14 04:59:35;;;;;;;8.80;6.80;;;;;;;1.57;92.41;98278.67;102896;1260;137276;-74
2024/01/14 05:02:02;;;;;;;7.90;6.80;;;;;;;1.55;92.20;98279.23;102979;1257;97683;-75
2024/01/14 05:04:29;;;;;;;7.60;6.30;;;;;;;1.50;92.28;98272.89;102979;1258;137154;-74
2024/01/14 05:06:56;;;;;;;6.90;6.00;;;;;;;1.47;92.25;98271.59;102953;1256;97997;-75
2024/01/14 05:09:23;;;;;;;6.80;5.60;;;;;;;1.45;92.37;98265.16;102987;1257;111646;-74
2024/01/14 05:11:50;;;;;;;7.40;6.10;;;;;;;1.42;92.56;98265.88;102903;1256;138845;-75
2024/01/14 05:14:17;;;;;;;6.60;5.40;;;;;;;1.39;92.81;98266.14;103089;1257;97889;-75
2024/01/14 05:16:44;;;;;;;7.40;5.60;;;;;;;1.39;92.97;98262.89;102903;1257;138070;-74
2024/01/14 05:19:11;;;;;;;6.20;5.60;;;;;;;1.37;92.95;98262.09;103032;1256;97910;-74
2024/01/14 05:21:38;;;;;;;7.40;6.40;;;;;;;1.37;93.15;98262.78;102964;1257;137417;-73
2024/01/14 05:24:06;;;;;;;9.20;7.30;;;;;;;1.36;93.17;98264.02;102992;1257;106699;-75
2024/01/14 05:26:33;;;;;;;9.20;6.50;;;;;;;1.31;93.03;98265.52;103032;1258;97823;-73
2024/01/14 05:29:00;;;;;;;8.60;5.90;;;;;;;1.31;93.29;98264.17;102847;1259;138074;-74
2024/01/14 05:31:27;;;;;;;7.20;5.90;;;;;;;1.30;93.17;98264.35;103029;1257;97917;-75
2024/01/14 05:33:54;;;;;;;7.20;5.70;;;;;;;1.29;93.21;98261.11;102870;1258;138169;-74
2024/01/14 05:36:21;;;;;;;6.80;5.40;;;;;;;1.31;93.37;98262.27;103001;1257;108095;-74
2024/01/14 05:38:48;;;;;;;9.10;6.10;;;;;;;1.35;93.43;98261.29;103027;1257;97707;-75
2024/01/14 05:41:15;;;;;;;6.90;6.20;;;;;;;1.39;93.45;98262.20;103290;1257;138013;-75
2024/01/14 05:43:42;;;;;;;8.20;6.10;;;;;;;1.42;93.25;98260.08;103044;1260;98003;-75
2024/01/14 05:46:08;;;;;;;8.80;7.00;;;;;;;1.43;93.26;98265.88;102965;1257;138236;-75
2024/01/14 05:48:35;;;;;;;8.50;6.40;;;;;;;1.41;93.15;98265.92;102972;1257;107328;-75
2024/01/14 05:51:02;;;;;;;6.40;5.70;;;;;;;1.36;93.14;98268.97;102933;1260;98528;-76
2024/01/14 05:53:29;;;;;;;7.20;5.40;;;;;;;1.32;93.18;98265.16;102881;1257;138489;-74
2024/01/14 05:55:57;;;;;;;6.70;5.50;;;;;;;1.31;93.36;98262.27;102973;1260;97840;-74
2024/01/14 05:58:25;;;;;;;6.50;4.80;;;;;;;1.34;93.56;98264.77;102968;1257;137784;-75
2024/01/14 06:00:51;;;;;;;6.10;4.80;;;;;;;1.34;93.53;98257.20;103030;1260;107665;-74
2024/01/14 06:03:19;;;;;;;9.10;5.20;;;;;;;1.40;93.50;98258.42;103073;1260;98288;-74
2024/01/14 06:05:45;;;;;;;7.20;5.50;;;;;;;1.43;93.29;98255.59;102851;1257;137149;-74
2024/01/14 06:08:12;;;;;;;7.00;5.70;;;;;;;1.45;93.41;98251.63;102953;1260;97827;-74
2024/01/14 06:10:39;;;;;;;7.00;6.20;;;;;;;1.49;93.15;98247.73;102986;1258;137981;-74
2024/01/14 06:13:06;;;;;;;8.50;6.10;;;;;;;1.48;92.82;98246.06;102977;1256;106770;-75
2024/01/14 06:15:33;;;;;;;6.80;5.60;;;;;;;1.44;92.75;98248.40;102217;1258;1003141;-74
2024/01/14 06:18:01;;;;;;;6.00;5.40;;;;;;;1.41;92.73;98243.64;103004;1256;107715;-75
2024/01/14 06:20:28;;;;;;;4.80;4.30;;;;;;;1.39;92.68;98242.50;102976;1260;97824;-74
2024/01/14 06:22:55;;;;;;;5.10;4.60;;;;;;;1.39;92.90;98244.56;102928;1259;137935;-74
2024/01/14 06:25:22;;;;;;;8.50;4.30;;;;;;;1.43;92.88;98242.42;102946;1256;107675;-73
2024/01/14 06:27:48;;;;;;;5.00;4.40;;;;;;;1.45;92.75;98245.47;102951;1260;137758;-74
2024/01/14 06:30:17;;;;;;;6.60;4.60;;;;;;;1.46;92.82;98243.89;103046;1257;105807;-74
2024/01/14 06:32:44;;;;;;;5.70;4.70;;;;;;;1.46;92.64;98246.95;103050;1257;98125;-74
2024/01/14 06:35:11;;;;;;;7.10;5.30;;;;;;;1.45;92.52;98246.66;102881;1258;137311;-73
2024/01/14 06:37:40;;;;;;;6.30;5.50;;;;;;;1.43;92.58;98245.50;103043;1260;107605;-73
2024/01/14 06:40:08;;;;;;;5.50;4.90;;;;;;;1.39;92.58;98247.14;102860;1257;137527;-74
2024/01/14 06:42:36;;;;;;;5.20;4.70;;;;;;;1.34;92.60;98243.00;103294;1256;108386;-74
2024/01/14 06:45:03;;;;;;;4.90;4.40;;;;;;;1.35;92.68;98248.11;102217;1261;1004275;-75
2024/01/14 06:47:30;;;;;;;5.20;4.70;;;;;;;1.33;92.60;98248.70;102895;1259;138197;-73
2024/01/14 06:49:57;;;;;;;4.50;4.00;;;;;;;1.32;92.74;98251.80;103021;1260;107668;-74
2024/01/14 06:52:36;;;;;;;5.50;4.50;;;;;;;1.35;92.83;98249.49;102962;1260;137781;-74
2024/01/14 06:55:04;;;;;;;5.50;5.00;;;;;;;1.37;92.97;98252.69;102957;1260;108514;-74
2024/01/14 06:57:31;;;;;;;6.90;5.40;;;;;;;1.39;93.06;98255.18;102987;1257;97885;-79
2024/01/14 06:59:58;;;;;;;5.70;5.20;;;;;;;1.38;92.94;98255.21;103047;1260;110987;-74
2024/01/14 07:02:25;;;;;;;6.50;5.20;;;;;;;1.32;92.92;98256.42;102935;1260;107095;-74
2024/01/14 07:04:52;;;;;;;5.60;4.50;;;;;;;1.28;93.03;98253.29;103132;1256;138104;-74
2024/01/14 07:07:19;;;;;;;6.40;4.80;;;;;;;1.26;93.03;98261.70;103085;1257;106970;-74
2024/01/14 07:09:46;;;;;;;6.00;4.60;;;;;;;1.25;93.22;98269.61;102940;1257;139219;-74
2024/01/14 07:12:13;;;;;;;5.60;4.30;;;;;;;1.23;93.30;98267.23;103036;1257;111571;-74
2024/01/14 07:14:40;;;;;;;4.80;4.40;;;;;;;1.27;93.38;98266.33;103030;1257;108899;-74
2024/01/14 07:17:08;;;;;;;6.10;5.10;;;;;;;1.29;93.38;98264.73;102808;1256;137565;-74
2024/01/14 07:19:35;;;;;;;5.70;5.20;;;;;;;1.31;93.56;98265.36;102967;1257;107328;-74
2024/01/14 07:22:04;;;;;;;6.60;5.90;;;;;;;1.33;93.55;98263.08;102904;1260;137583;-74
2024/01/14 07:24:34;;;;;;;6.40;5.00;;;;;;;1.30;93.59;98264.52;103021;1257;109969;-75
2024/01/14 07:27:02;;;;;;;6.00;5.10;;;;;;;1.27;93.68;98259.64;102647;1258;139176;-74
2024/01/14 07:29:29;;;;;;;7.60;4.70;;;;;;;1.24;93.65;98261.42;103048;1258;97793;-72
2024/01/14 07:31:55;;;;;;;6.30;4.30;;;;;;;1.26;93.76;98265.31;102946;1258;108059;-73
2024/01/14 07:34:22;;;;;;;5.80;4.50;;;;;;;1.27;93.93;98257.42;102845;1259;138144;-75
2024/01/14 07:36:49;;;;;;;7.80;4.70;;;;;;;1.30;93.82;98263.84;102883;1260;111450;-76
2024/01/14 07:39:17;;;;;;;6.00;5.10;;;;;;;1.32;93.92;98260.87;102721;1258;137790;-76
2024/01/14 07:41:44;;;;;;;7.10;5.50;;;;;;;1.36;94.03;98257.51;102869;1260;98329;-77
2024/01/14 07:44:12;;;;;;;7.30;5.90;;;;;;;1.37;93.78;98259.70;102896;1257;137561;-77
2024/01/14 07:46:39;;;;;;;7.30;5.10;;;;;;;1.35;93.75;98259.59;103081;1260;97785;-76
2024/01/14 07:49:06;;;;;;;6.10;4.90;;;;;;;1.31;93.58;98259.88;102985;1256;111165;-74
2024/01/14 07:51:33;;;;;;;5.20;4.40;;;;;;;1.30;93.70;98256.30;102856;1257;138320;-77
2024/01/14 07:53:59;;;;;;;5.70;4.70;;;;;;;1.34;93.77;98259.45;103040;1260;97810;-77
2024/01/14 07:56:26;;;;;;;8.70;5.00;;;;;;;1.37;93.85;98260.21;102901;1259;138182;-74
2024/01/14 07:58:53;;;;;;;6.60;4.40;;;;;;;1.41;93.89;98259.92;102965;1260;97798;-77
2024/01/14 08:01:21;;;;;;;7.10;5.30;;;;;;;1.42;93.85;98257.15;102969;1257;111753;-76
2024/01/14 08:03:48;;;;;;;6.50;5.00;;;;;;;1.44;93.76;98256.94;102819;1260;137449;-73
2024/01/14 08:06:20;;;;;;;7.80;5.60;;;;;;;1.44;93.67;98265.34;103064;1260;97956;-75
2024/01/14 08:08:47;;;;;;;7.40;5.60;;;;;;;1.40;93.45;98259.11;102806;1257;137395;-74
2024/01/14 08:11:15;;;;;;;7.90;5.70;;;;;;;1.34;93.61;98255.33;103034;1256;97799;-76
2024/01/14 08:13:41;;;;;;;7.00;4.90;;;;;;;1.32;93.74;98253.52;102974;1257;110096;-75
2024/01/14 08:16:08;;;;;;;6.40;4.50;;;;;;;1.29;93.60;98251.20;102849;1260;138162;-74
2024/01/14 08:18:35;;;;;;;6.70;4.50;;;;;;;1.27;93.82;98252.46;102986;1257;97808;-75
2024/01/14 08:21:07;;;;;;;6.20;4.70;;;;;;;1.25;93.90;98253.50;102760;1257;138904;-74
2024/01/14 08:23:35;;;;;;;6.60;4.90;;;;;;;1.29;94.13;98251.89;102840;1257;97866;-74
2024/01/14 08:26:04;;;;;;;6.90;5.10;;;;;;;1.32;94.11;98257.79;102946;1260;110083;-75
2024/01/14 08:28:32;;;;;;;8.30;5.50;;;;;;;1.34;94.11;98256.02;102943;1260;107810;-75
2024/01/14 08:30:59;;;;;;;8.90;5.90;;;;;;;1.36;94.19;98259.03;102976;1257;98334;-76
2024/01/14 08:33:26;;;;;;;7.30;5.20;;;;;;;1.35;93.84;98261.48;102726;1258;137172;-75
2024/01/14 08:35:54;;;;;;;7.10;5.00;;;;;;;1.31;93.84;98263.64;102939;1260;98191;-76
2024/01/14 08:38:21;;;;;;;5.80;4.90;;;;;;;1.29;93.91;98263.88;102829;1257;138019;-76
2024/01/14 08:40:48;;;;;;;5.50;4.60;;;;;;;1.27;94.02;98269.58;102870;1257;106874;-77
2024/01/14 08:43:15;;;;;;;6.40;4.40;;;;;;;1.26;94.03;98266.84;102999;1259;97800;-78
2024/01/14 08:45:42;;;;;;;5.40;4.40;;;;;;;1.26;94.27;98268.03;102188;1257;1015749;-80
2024/01/14 08:48:10;;;;;;;7.30;5.20;;;;;;;1.31;94.25;98268.61;102951;1257;96306;-77
2024/01/14 08:50:37;;;;;;;6.40;5.20;;;;;;;1.33;94.31;98273.17;102815;1257;138093;-79
2024/01/14 08:53:04;;;;;;;6.90;5.80;;;;;;;1.33;94.17;98274.54;102912;1257;107571;-77
2024/01/14 08:55:32;;;;;;;7.70;5.40;;;;;;;1.31;94.22;98271.86;102959;1259;97824;-75
2024/01/14 08:57:59;;;;;;;7.30;5.40;;;;;;;1.25;94.14;98273.55;102823;1260;138001;-76
2024/01/14 09:00:26;;;;;;;5.80;4.30;;;;;;;1.27;94.26;98278.46;102963;1260;98365;-75
2024/01/14 09:02:53;;;;;;;6.20;4.10;;;;;;;1.25;94.20;98279.88;102857;1256;138103;-76
2024/01/14 09:05:20;;;;;;;7.20;4.70;;;;;;;1.25;94.39;98274.75;102939;1259;107470;-76
2024/01/14 09:07:47;;;;;;;6.00;5.30;;;;;;;1.28;94.45;98273.48;103033;1259;98271;-76
2024/01/14 09:10:14;;;;;;;7.30;5.20;;;;;;;1.30;94.34;98278.92;102886;1259;138133;-73
2024/01/14 09:12:41;;;;;;;6.70;5.20;;;;;;;1.33;94.37;98277.28;103006;1257;98207;-74
2024/01/14 09:15:09;;;;;;;7.90;5.10;;;;;;;1.36;94.31;98281.46;102877;1258;138103;-79
2024/01/14 09:17:36;;;;;;;7.40;5.30;;;;;;;1.33;94.29;98283.77;102913;1256;107682;-74
2024/01/14 09:20:04;;;;;;;7.70;4.70;;;;;;;1.32;94.29;98283.48;102422;1259;1002909;-70
2024/01/14 09:22:32;;;;;;;6.00;4.10;;;;;;;1.31;94.20;98287.79;102947;1258;106738;-76
2024/01/14 09:24:59;;;;;;;5.50;3.90;;;;;;;1.31;94.31;98290.18;103022;1259;97831;-75
2024/01/14 09:27:29;;;;;;;5.50;4.20;;;;;;;1.31;94.04;98289.32;102821;1260;138344;-75
2024/01/14 09:29:56;;;;;;;6.40;4.40;;;;;;;1.30;94.02;98292.59;102932;1261;107420;-75
2024/01/14 09:32:23;;;;;;;7.50;4.80;;;;;;;1.32;94.08;98286.90;102857;1258;138119;-76
2024/01/14 09:34:50;;;;;;;7.50;4.80;;;;;;;1.32;93.95;98295.98;102953;1259;108182;-76
2024/01/14 09:37:17;;;;;;;7.40;5.00;;;;;;;1.30;93.83;98292.27;102983;1257;97922;-76
2024/01/14 09:39:44;;;;;;;7.80;4.20;;;;;;;1.27;93.78;98292.16;102837;1260;138710;-76
2024/01/14 09:42:20;;;;;;;6.40;4.00;;;;;;;1.27;93.73;98289.26;102934;1260;108602;-73
2024/01/14 09:44:48;;;;;;;7.40;3.90;;;;;;;1.27;93.83;98290.29;102862;1257;139076;-73
2024/01/14 09:47:15;;;;;;;7.00;4.20;;;;;;;1.31;93.87;98289.65;102918;1257;108109;-74
2024/01/14 09:49:43;;;;;;;5.90;3.90;;;;;;;1.37;93.99;98290.87;102914;1259;97809;-74
2024/01/14 09:52:12;;;;;;;9.20;4.20;;;;;;;1.41;94.03;98293.83;102716;1259;137351;-73
2024/01/14 09:54:39;;;;;;;8.40;5.00;;;;;;;1.46;93.84;98294.58;102872;1257;107077;-72
2024/01/14 09:57:13;;;;;;;8.00;5.10;;;;;;;1.45;93.43;98296.98;102773;1260;136245;-72
2024/01/14 09:59:43;;;;;;;8.70;4.90;;;;;;;1.44;93.57;98291.37;103004;1260;107420;-70
2024/01/14 10:02:11;;;;;;;6.50;4.30;;;;;;;1.43;93.43;98299.77;102951;1260;98175;-74
2024/01/14 10:04:39;;;;;;;7.20;4.10;;;;;;;1.43;93.51;98300.29;102903;1258;113613;-73
2024/01/14 10:07:06;;;;;;;6.00;3.80;;;;;;;1.43;93.67;98293.77;102880;1258;107623;-70
2024/01/14 10:09:33;;;;;;;8.40;4.50;;;;;;;1.43;93.70;98293.27;102898;1261;139804;-69
2024/01/14 10:12:00;;;;;;;10.40;4.90;;;;;;;1.44;93.65;98295.14;102912;1259;108102;-70
2024/01/14 10:14:28;;;;;;;8.50;5.20;;;;;;;1.47;93.88;98293.16;102901;1257;139252;-70
2024/01/14 10:16:57;;;;;;;7.00;5.20;;;;;;;1.50;93.82;98297.55;102932;1257;110411;-72
2024/01/14 10:19:25;;;;;;;10.80;5.80;;;;;;;1.51;93.93;98294.94;102983;1258;107103;-69
2024/01/14 10:21:54;;;;;;;8.10;5.30;;;;;;;1.46;93.59;98292.67;102659;1257;137602;-70
2024/01/14 10:24:41;;;;;;;7.10;4.50;;;;;;;1.44;93.68;98290.02;102792;1256;106855;-73
2024/01/14 10:27:10;;;;;;;6.20;4.20;;;;;;;1.41;93.78;98291.95;102855;1256;140241;-72
2024/01/14 10:29:37;;;;;;;6.80;4.20;;;;;;;1.39;93.68;98294.58;102913;1261;110275;-73
2024/01/14 10:32:04;;;;;;;5.80;4.10;;;;;;;1.40;93.96;98289.92;102977;1259;106819;-73
2024/01/14 10:34:31;;;;;;;8.10;4.60;;;;;;;1.41;93.93;98287.48;102837;1259;138150;-74
2024/01/14 10:37:02;;;;;;;7.20;4.80;;;;;;;1.42;93.93;98292.60;102915;1259;107712;-73
2024/01/14 10:39:32;;;;;;;9.10;5.80;;;;;;;1.39;93.68;98295.77;102878;1257;138304;-72
2024/01/14 10:41:59;;;;;;;9.90;5.70;;;;;;;1.36;93.79;98288.83;102961;1261;111335;-73
2024/01/14 10:44:26;;;;;;;7.80;5.30;;;;;;;1.31;93.73;98286.95;102788;1259;137482;-71
2024/01/14 10:46:56;;;;;;;7.90;5.50;;;;;;;1.28;93.88;98287.37;102901;1259;97828;-73
2024/01/14 10:49:27;;;;;;;8.60;5.40;;;;;;;1.25;93.88;98284.15;102922;1257;107894;-73
2024/01/14 10:52:01;;;;;;;8.30;6.20;;;;;;;1.25;94.15;98286.55;102717;1261;138007;-72
2024/01/14 10:54:33;;;;;;;6.50;5.20;;;;;;;1.28;94.24;98282.05;102958;1257;110904;-70
2024/01/14 10:57:10;;;;;;;9.40;5.80;;;;;;;1.33;94.38;98286.69;102760;1258;137613;-70
2024/01/14 10:59:38;;;;;;;8.80;5.80;;;;;;;1.36;94.30;98287.29;102966;1259;97796;-71
2024/01/14 11:02:15;;;;;;;8.50;6.20;;;;;;;1.38;94.16;98292.05;102848;1262;106913;-69
2024/01/14 11:04:44;;;;;;;9.50;6.80;;;;;;;1.39;94.36;98287.73;102978;1259;97908;-73
2024/01/14 11:07:12;;;;;;;8.30;6.70;;;;;;;1.36;94.19;98284.05;102991;1261;111675;-72
2024/01/14 11:09:40;;;;;;;8.30;5.90;;;;;;;1.33;94.15;98287.54;102824;1259;137969;-74
2024/01/14 11:12:14;;;;;;;9.20;6.00;;;;;;;1.30;94.20;98287.48;103016;1258;97808;-74
2024/01/14 11:14:52;;;;;;;9.10;6.20;;;;;;;1.30;94.29;98287.30;102952;1259;138017;-73
2024/01/14 11:17:31;;;;;;;9.90;6.10;;;;;;;1.27;94.21;98285.49;102952;1261;98254;-72
2024/01/14 11:19:59;;;;;;;7.90;6.20;;;;;;;1.27;94.40;98281.38;102942;1259;110848;-72
2024/01/14 11:22:27;;;;;;;9.20;6.60;;;;;;;1.26;94.40;98282.43;102820;1261;137746;-73
2024/01/14 11:25:04;;;;;;;10.90;7.30;;;;;;;1.27;94.49;98272.14;102995;1258;98120;-72
2024/01/14 11:27:33;;;;;;;10.90;7.10;;;;;;;1.27;94.58;98275.91;102767;1259;137459;-71
2024/01/14 11:30:00;;;;;;;11.20;7.00;;;;;;;1.27;94.42;98274.38;102904;1261;97822;-75